sensor_id;sensor_type;location;lat;lon;timestamp;P1;durP1;ratioP1;P2;durP2;ratioP2
11346;SDS011;5728;42.722;23.258;2023-06-01T00:01:41;8.32;;;6.53;;
11346;SDS011;5728;42.722;23.258;2023-06-01T00:04:08;11.82;;;7.03;;
11346;SDS011;5728;42.722;23.258;2023-06-01T00:06:35;11.18;;;7.20;;
11346;SDS011;5728;42.722;23.258;2023-06-01T00:09:01;13.93;;;7.55;;
11346;SDS011;5728;42.722;23.258;2023-06-01T00:11:30;15.88;;;7.45;;
11346;SDS011;5728;42.722;23.258;2023-06-01T00:13:56;10.45;;;7.30;;
11346;SDS011;5728;42.722;23.258;2023-06-01T00:16:23;12.07;;;8.02;;
11346;SDS011;5728;42.722;23.258;2023-06-01T00:49:08;133.40;;;12.90;;
11346;SDS011;5728;42.722;23.258;2023-06-01T00:51:35;154.43;;;13.60;;
11346;SDS011;5728;42.722;23.258;2023-06-01T00:54:03;130.82;;;12.55;;
11346;SDS011;5728;42.722;23.258;2023-06-01T00:56:29;169.13;;;14.00;;
11346;SDS011;5728;42.722;23.258;2023-06-01T00:58:58;208.18;;;15.13;;
11346;SDS011;5728;42.722;23.258;2023-06-01T01:01:25;250.48;;;18.27;;
11346;SDS011;5728;42.722;23.258;2023-06-01T01:03:52;202.10;;;16.77;;
11346;SDS011;5728;42.722;23.258;2023-06-01T01:06:26;336.27;;;20.08;;
11346;SDS011;5728;42.722;23.258;2023-06-01T01:09:08;102.97;;;14.70;;
11346;SDS011;5728;42.722;23.258;2023-06-01T01:11:43;211.88;;;18.08;;
11346;SDS011;5728;42.722;23.258;2023-06-01T01:14:20;503.67;;;27.60;;
11346;SDS011;5728;42.722;23.258;2023-06-01T01:16:52;200.52;;;19.02;;
11346;SDS011;5728;42.722;23.258;2023-06-01T01:19:35;171.88;;;18.27;;
11346;SDS011;5728;42.722;23.258;2023-06-01T01:22:20;380.48;;;30.25;;
11346;SDS011;5728;42.722;23.258;2023-06-01T01:25:03;306.48;;;24.20;;
11346;SDS011;5728;42.722;23.258;2023-06-01T01:27:45;300.23;;;22.60;;
11346;SDS011;5728;42.722;23.258;2023-06-01T01:30:27;54.97;;;16.77;;
11346;SDS011;5728;42.722;23.258;2023-06-01T01:32:56;36.88;;;18.30;;
11346;SDS011;5728;42.722;23.258;2023-06-01T01:35:24;43.05;;;17.30;;
11346;SDS011;5728;42.722;23.258;2023-06-01T01:37:53;105.88;;;20.42;;
11346;SDS011;5728;42.722;23.258;2023-06-01T01:40:21;59.17;;;17.88;;
11346;SDS011;5728;42.722;23.258;2023-06-01T01:42:48;181.77;;;23.90;;
11346;SDS011;5728;42.722;23.258;2023-06-01T01:45:16;100.35;;;16.80;;
11346;SDS011;5728;42.722;23.258;2023-06-01T01:47:47;62.85;;;17.15;;
11346;SDS011;5728;42.722;23.258;2023-06-01T01:50:18;184.52;;;19.75;;
11346;SDS011;5728;42.722;23.258;2023-06-01T01:52:47;53.20;;;16.63;;
11346;SDS011;5728;42.722;23.258;2023-06-01T01:55:16;60.33;;;16.40;;
11346;SDS011;5728;42.722;23.258;2023-06-01T01:57:49;62.83;;;17.52;;
11346;SDS011;5728;42.722;23.258;2023-06-01T02:00:16;60.65;;;17.42;;
11346;SDS011;5728;42.722;23.258;2023-06-01T02:02:45;59.25;;;15.70;;
11346;SDS011;5728;42.722;23.258;2023-06-01T02:05:12;108.55;;;17.40;;
11346;SDS011;5728;42.722;23.258;2023-06-01T02:07:39;91.57;;;18.13;;
11346;SDS011;5728;42.722;23.258;2023-06-01T02:10:06;29.63;;;15.98;;
11346;SDS011;5728;42.722;23.258;2023-06-01T02:12:36;49.17;;;17.63;;
11346;SDS011;5728;42.722;23.258;2023-06-01T02:15:04;76.38;;;17.38;;
11346;SDS011;5728;42.722;23.258;2023-06-01T02:17:33;39.50;;;16.60;;
11346;SDS011;5728;42.722;23.258;2023-06-01T02:20:04;32.05;;;19.88;;
11346;SDS011;5728;42.722;23.258;2023-06-01T02:22:31;34.75;;;21.52;;
11346;SDS011;5728;42.722;23.258;2023-06-01T02:24:58;32.83;;;20.35;;
11346;SDS011;5728;42.722;23.258;2023-06-01T02:27:25;49.00;;;17.83;;
11346;SDS011;5728;42.722;23.258;2023-06-01T02:29:52;37.58;;;15.88;;
11346;SDS011;5728;42.722;23.258;2023-06-01T02:32:19;85.68;;;18.08;;
11346;SDS011;5728;42.722;23.258;2023-06-01T02:34:46;43.20;;;20.23;;
11346;SDS011;5728;42.722;23.258;2023-06-01T02:37:14;58.75;;;15.75;;
11346;SDS011;5728;42.722;23.258;2023-06-01T02:39:41;97.57;;;14.55;;
11346;SDS011;5728;42.722;23.258;2023-06-01T02:42:08;98.18;;;15.20;;
11346;SDS011;5728;42.722;23.258;2023-06-01T02:44:34;127.45;;;16.27;;
11346;SDS011;5728;42.722;23.258;2023-06-01T02:47:01;55.95;;;14.15;;
11346;SDS011;5728;42.722;23.258;2023-06-01T02:49:28;171.32;;;16.38;;
11346;SDS011;5728;42.722;23.258;2023-06-01T02:51:54;79.70;;;16.15;;
11346;SDS011;5728;42.722;23.258;2023-06-01T02:54:23;192.60;;;22.15;;
11346;SDS011;5728;42.722;23.258;2023-06-01T02:56:49;114.97;;;15.65;;
11346;SDS011;5728;42.722;23.258;2023-06-01T02:59:16;102.45;;;15.50;;
11346;SDS011;5728;42.722;23.258;2023-06-01T03:01:43;97.75;;;15.52;;
11346;SDS011;5728;42.722;23.258;2023-06-01T03:04:10;73.72;;;15.10;;
11346;SDS011;5728;42.722;23.258;2023-06-01T03:06:38;34.03;;;15.68;;
11346;SDS011;5728;42.722;23.258;2023-06-01T03:09:05;52.00;;;16.50;;
11346;SDS011;5728;42.722;23.258;2023-06-01T03:11:39;73.60;;;17.20;;
11346;SDS011;5728;42.722;23.258;2023-06-01T03:14:06;58.05;;;19.35;;
11346;SDS011;5728;42.722;23.258;2023-06-01T03:16:33;70.65;;;23.10;;
11346;SDS011;5728;42.722;23.258;2023-06-01T03:19:00;67.35;;;22.25;;
11346;SDS011;5728;42.722;23.258;2023-06-01T03:21:27;42.70;;;24.02;;
11346;SDS011;5728;42.722;23.258;2023-06-01T03:23:54;56.83;;;25.77;;
11346;SDS011;5728;42.722;23.258;2023-06-01T03:26:21;53.92;;;24.10;;
11346;SDS011;5728;42.722;23.258;2023-06-01T03:28:49;97.40;;;24.55;;
11346;SDS011;5728;42.722;23.258;2023-06-01T03:31:16;49.70;;;24.25;;
11346;SDS011;5728;42.722;23.258;2023-06-01T03:33:44;37.78;;;22.40;;
11346;SDS011;5728;42.722;23.258;2023-06-01T03:36:11;53.47;;;23.20;;
11346;SDS011;5728;42.722;23.258;2023-06-01T03:38:38;39.78;;;22.70;;
11346;SDS011;5728;42.722;23.258;2023-06-01T03:41:05;52.45;;;24.80;;
11346;SDS011;5728;42.722;23.258;2023-06-01T03:43:31;39.42;;;21.98;;
11346;SDS011;5728;42.722;23.258;2023-06-01T03:46:00;43.25;;;21.90;;
11346;SDS011;5728;42.722;23.258;2023-06-01T03:48:28;35.75;;;21.90;;
11346;SDS011;5728;42.722;23.258;2023-06-01T03:50:55;28.02;;;18.60;;
11346;SDS011;5728;42.722;23.258;2023-06-01T03:53:23;37.70;;;18.48;;
11346;SDS011;5728;42.722;23.258;2023-06-01T03:55:50;30.35;;;18.02;;
11346;SDS011;5728;42.722;23.258;2023-06-01T03:58:21;27.58;;;17.13;;
11346;SDS011;5728;42.722;23.258;2023-06-01T04:01:00;25.85;;;16.83;;
11346;SDS011;5728;42.722;23.258;2023-06-01T04:03:29;30.30;;;16.90;;
11346;SDS011;5728;42.722;23.258;2023-06-01T04:05:56;33.20;;;16.58;;
11346;SDS011;5728;42.722;23.258;2023-06-01T04:08:26;29.05;;;13.77;;
11346;SDS011;5728;42.722;23.258;2023-06-01T04:10:54;27.50;;;14.50;;
11346;SDS011;5728;42.722;23.258;2023-06-01T04:13:21;32.73;;;15.40;;
11346;SDS011;5728;42.722;23.258;2023-06-01T04:15:48;43.67;;;16.50;;
11346;SDS011;5728;42.722;23.258;2023-06-01T04:18:17;47.00;;;15.53;;
11346;SDS011;5728;42.722;23.258;2023-06-01T04:20:44;61.17;;;17.23;;
11346;SDS011;5728;42.722;23.258;2023-06-01T04:23:13;73.97;;;17.87;;
11346;SDS011;5728;42.722;23.258;2023-06-01T04:25:41;53.30;;;16.40;;
11346;SDS011;5728;42.722;23.258;2023-06-01T04:28:09;65.37;;;18.50;;
11346;SDS011;5728;42.722;23.258;2023-06-01T04:30:37;42.90;;;17.27;;
11346;SDS011;5728;42.722;23.258;2023-06-01T04:33:04;79.13;;;20.33;;
11346;SDS011;5728;42.722;23.258;2023-06-01T04:35:33;36.70;;;19.03;;
11346;SDS011;5728;42.722;23.258;2023-06-01T04:38:02;37.53;;;19.40;;
11346;SDS011;5728;42.722;23.258;2023-06-01T04:40:30;39.43;;;19.23;;
11346;SDS011;5728;42.722;23.258;2023-06-01T04:43:01;34.13;;;19.13;;
11346;SDS011;5728;42.722;23.258;2023-06-01T04:45:29;28.27;;;18.13;;
11346;SDS011;5728;42.722;23.258;2023-06-01T04:47:58;32.58;;;18.65;;
11346;SDS011;5728;42.722;23.258;2023-06-01T04:50:29;28.73;;;19.15;;
11346;SDS011;5728;42.722;23.258;2023-06-01T04:53:01;35.67;;;20.08;;
11346;SDS011;5728;42.722;23.258;2023-06-01T04:55:28;33.35;;;19.17;;
11346;SDS011;5728;42.722;23.258;2023-06-01T04:57:55;32.63;;;18.52;;
11346;SDS011;5728;42.722;23.258;2023-06-01T05:00:22;31.83;;;19.08;;
11346;SDS011;5728;42.722;23.258;2023-06-01T05:02:48;39.40;;;20.15;;
11346;SDS011;5728;42.722;23.258;2023-06-01T05:05:15;28.00;;;18.60;;
11346;SDS011;5728;42.722;23.258;2023-06-01T05:07:42;30.55;;;19.77;;
11346;SDS011;5728;42.722;23.258;2023-06-01T05:10:12;28.05;;;17.35;;
11346;SDS011;5728;42.722;23.258;2023-06-01T05:12:39;36.90;;;19.02;;
11346;SDS011;5728;42.722;23.258;2023-06-01T05:15:07;46.40;;;20.27;;
11346;SDS011;5728;42.722;23.258;2023-06-01T05:17:36;39.13;;;20.60;;
11346;SDS011;5728;42.722;23.258;2023-06-01T05:20:04;44.10;;;20.77;;
11346;SDS011;5728;42.722;23.258;2023-06-01T05:22:34;42.90;;;20.77;;
11346;SDS011;5728;42.722;23.258;2023-06-01T05:25:01;38.70;;;19.17;;
11346;SDS011;5728;42.722;23.258;2023-06-01T05:27:32;38.25;;;20.17;;
11346;SDS011;5728;42.722;23.258;2023-06-01T05:30:01;41.60;;;20.30;;
11346;SDS011;5728;42.722;23.258;2023-06-01T05:32:28;41.67;;;21.40;;
11346;SDS011;5728;42.722;23.258;2023-06-01T05:34:56;33.15;;;20.67;;
11346;SDS011;5728;42.722;23.258;2023-06-01T05:37:25;40.10;;;20.73;;
11346;SDS011;5728;42.722;23.258;2023-06-01T05:39:52;36.97;;;22.88;;
11346;SDS011;5728;42.722;23.258;2023-06-01T05:42:19;39.25;;;20.50;;
11346;SDS011;5728;42.722;23.258;2023-06-01T05:44:48;34.10;;;20.17;;
11346;SDS011;5728;42.722;23.258;2023-06-01T05:47:15;31.42;;;19.50;;
11346;SDS011;5728;42.722;23.258;2023-06-01T05:49:41;35.70;;;20.58;;
11346;SDS011;5728;42.722;23.258;2023-06-01T05:52:08;33.92;;;19.35;;
11346;SDS011;5728;42.722;23.258;2023-06-01T05:54:39;37.55;;;19.58;;
11346;SDS011;5728;42.722;23.258;2023-06-01T05:57:07;33.53;;;18.17;;
11346;SDS011;5728;42.722;23.258;2023-06-01T05:59:34;37.05;;;20.45;;
11346;SDS011;5728;42.722;23.258;2023-06-01T06:02:05;29.45;;;20.45;;
11346;SDS011;5728;42.722;23.258;2023-06-01T06:04:33;30.02;;;19.50;;
11346;SDS011;5728;42.722;23.258;2023-06-01T06:07:10;32.33;;;19.63;;
11346;SDS011;5728;42.722;23.258;2023-06-01T06:09:37;31.80;;;19.58;;
11346;SDS011;5728;42.722;23.258;2023-06-01T06:12:05;37.42;;;19.77;;
11346;SDS011;5728;42.722;23.258;2023-06-01T06:14:36;31.95;;;21.10;;
11346;SDS011;5728;42.722;23.258;2023-06-01T06:17:06;37.80;;;20.95;;
11346;SDS011;5728;42.722;23.258;2023-06-01T06:19:33;32.92;;;20.20;;
11346;SDS011;5728;42.722;23.258;2023-06-01T06:22:00;33.50;;;20.33;;
11346;SDS011;5728;42.722;23.258;2023-06-01T06:24:27;32.13;;;19.38;;
11346;SDS011;5728;42.722;23.258;2023-06-01T06:26:54;31.27;;;19.65;;
11346;SDS011;5728;42.722;23.258;2023-06-01T06:29:22;30.58;;;19.70;;
11346;SDS011;5728;42.722;23.258;2023-06-01T06:31:50;32.65;;;20.23;;
11346;SDS011;5728;42.722;23.258;2023-06-01T06:34:21;36.55;;;19.65;;
11346;SDS011;5728;42.722;23.258;2023-06-01T06:36:49;31.52;;;19.77;;
11346;SDS011;5728;42.722;23.258;2023-06-01T06:39:18;30.42;;;18.80;;
11346;SDS011;5728;42.722;23.258;2023-06-01T06:41:46;32.38;;;19.30;;
11346;SDS011;5728;42.722;23.258;2023-06-01T06:44:13;28.55;;;19.05;;
11346;SDS011;5728;42.722;23.258;2023-06-01T06:46:39;38.05;;;20.95;;
11346;SDS011;5728;42.722;23.258;2023-06-01T06:49:06;36.00;;;19.83;;
11346;SDS011;5728;42.722;23.258;2023-06-01T06:51:36;30.05;;;18.75;;
11346;SDS011;5728;42.722;23.258;2023-06-01T06:54:03;33.60;;;20.30;;
11346;SDS011;5728;42.722;23.258;2023-06-01T06:56:30;31.67;;;19.73;;
11346;SDS011;5728;42.722;23.258;2023-06-01T06:58:57;31.48;;;18.55;;
11346;SDS011;5728;42.722;23.258;2023-06-01T07:01:24;27.85;;;18.95;;
11346;SDS011;5728;42.722;23.258;2023-06-01T07:03:52;28.98;;;18.95;;
11346;SDS011;5728;42.722;23.258;2023-06-01T07:06:18;27.58;;;19.38;;
11346;SDS011;5728;42.722;23.258;2023-06-01T07:08:47;28.55;;;16.98;;
11346;SDS011;5728;42.722;23.258;2023-06-01T07:11:15;30.65;;;19.92;;
11346;SDS011;5728;42.722;23.258;2023-06-01T07:13:42;28.23;;;20.25;;
11346;SDS011;5728;42.722;23.258;2023-06-01T07:16:10;31.95;;;20.02;;
11346;SDS011;5728;42.722;23.258;2023-06-01T07:18:38;26.38;;;18.10;;
11346;SDS011;5728;42.722;23.258;2023-06-01T07:21:07;27.20;;;18.75;;
11346;SDS011;5728;42.722;23.258;2023-06-01T07:23:35;31.15;;;19.02;;
11346;SDS011;5728;42.722;23.258;2023-06-01T07:26:03;27.23;;;18.17;;
11346;SDS011;5728;42.722;23.258;2023-06-01T07:28:29;26.48;;;18.67;;
11346;SDS011;5728;42.722;23.258;2023-06-01T07:30:58;27.33;;;17.80;;
11346;SDS011;5728;42.722;23.258;2023-06-01T07:33:24;26.13;;;18.25;;
11346;SDS011;5728;42.722;23.258;2023-06-01T07:35:52;27.48;;;17.25;;
11346;SDS011;5728;42.722;23.258;2023-06-01T07:38:19;22.30;;;16.98;;
11346;SDS011;5728;42.722;23.258;2023-06-01T07:40:48;25.10;;;16.33;;
11346;SDS011;5728;42.722;23.258;2023-06-01T07:43:18;24.67;;;17.17;;
11346;SDS011;5728;42.722;23.258;2023-06-01T07:45:45;24.83;;;18.08;;
11346;SDS011;5728;42.722;23.258;2023-06-01T07:48:13;27.70;;;16.95;;
11346;SDS011;5728;42.722;23.258;2023-06-01T07:50:40;28.05;;;16.23;;
11346;SDS011;5728;42.722;23.258;2023-06-01T07:53:08;25.83;;;17.48;;
11346;SDS011;5728;42.722;23.258;2023-06-01T07:55:35;22.35;;;16.45;;
11346;SDS011;5728;42.722;23.258;2023-06-01T07:58:03;28.27;;;16.55;;
11346;SDS011;5728;42.722;23.258;2023-06-01T08:00:32;22.30;;;15.95;;
11346;SDS011;5728;42.722;23.258;2023-06-01T08:02:59;22.33;;;14.32;;
11346;SDS011;5728;42.722;23.258;2023-06-01T08:05:31;21.45;;;14.77;;
11346;SDS011;5728;42.722;23.258;2023-06-01T08:07:58;21.55;;;14.88;;
11346;SDS011;5728;42.722;23.258;2023-06-01T08:10:26;29.90;;;17.40;;
11346;SDS011;5728;42.722;23.258;2023-06-01T08:12:53;23.85;;;14.32;;
11346;SDS011;5728;42.722;23.258;2023-06-01T08:15:23;21.95;;;14.25;;
11346;SDS011;5728;42.722;23.258;2023-06-01T08:17:55;22.08;;;13.93;;
11346;SDS011;5728;42.722;23.258;2023-06-01T08:20:23;20.92;;;14.02;;
11346;SDS011;5728;42.722;23.258;2023-06-01T08:22:52;26.23;;;14.50;;
11346;SDS011;5728;42.722;23.258;2023-06-01T08:25:20;28.15;;;15.23;;
11346;SDS011;5728;42.722;23.258;2023-06-01T08:27:48;27.25;;;13.95;;
11346;SDS011;5728;42.722;23.258;2023-06-01T08:30:16;21.80;;;14.20;;
11346;SDS011;5728;42.722;23.258;2023-06-01T08:32:43;20.85;;;14.57;;
11346;SDS011;5728;42.722;23.258;2023-06-01T08:35:12;24.58;;;14.50;;
11346;SDS011;5728;42.722;23.258;2023-06-01T08:37:41;21.42;;;14.50;;
11346;SDS011;5728;42.722;23.258;2023-06-01T08:40:08;25.48;;;14.63;;
11346;SDS011;5728;42.722;23.258;2023-06-01T08:42:43;23.20;;;14.23;;
11346;SDS011;5728;42.722;23.258;2023-06-01T08:45:16;20.25;;;13.68;;
11346;SDS011;5728;42.722;23.258;2023-06-01T08:47:43;19.67;;;13.57;;
11346;SDS011;5728;42.722;23.258;2023-06-01T08:50:14;19.88;;;14.80;;
11346;SDS011;5728;42.722;23.258;2023-06-01T08:52:43;30.45;;;14.45;;
11346;SDS011;5728;42.722;23.258;2023-06-01T08:55:12;22.80;;;13.52;;
11346;SDS011;5728;42.722;23.258;2023-06-01T08:57:40;20.17;;;12.93;;
11346;SDS011;5728;42.722;23.258;2023-06-01T09:00:08;18.83;;;13.52;;
11346;SDS011;5728;42.722;23.258;2023-06-01T09:02:36;17.40;;;12.23;;
11346;SDS011;5728;42.722;23.258;2023-06-01T09:05:03;19.02;;;10.93;;
11346;SDS011;5728;42.722;23.258;2023-06-01T09:07:32;15.00;;;9.70;;
11346;SDS011;5728;42.722;23.258;2023-06-01T09:09:59;13.90;;;11.27;;
11346;SDS011;5728;42.722;23.258;2023-06-01T09:12:27;20.80;;;12.05;;
11346;SDS011;5728;42.722;23.258;2023-06-01T09:15:06;18.45;;;11.57;;
11346;SDS011;5728;42.722;23.258;2023-06-01T09:17:34;28.67;;;12.15;;
11346;SDS011;5728;42.722;23.258;2023-06-01T09:20:02;16.70;;;11.65;;
11346;SDS011;5728;42.722;23.258;2023-06-01T09:22:41;17.95;;;10.90;;
11346;SDS011;5728;42.722;23.258;2023-06-01T09:25:09;15.50;;;9.95;;
11346;SDS011;5728;42.722;23.258;2023-06-01T09:27:42;17.92;;;10.95;;
11346;SDS011;5728;42.722;23.258;2023-06-01T09:30:11;19.80;;;10.05;;
11346;SDS011;5728;42.722;23.258;2023-06-01T09:32:39;11.05;;;7.75;;
11346;SDS011;5728;42.722;23.258;2023-06-01T09:35:08;12.20;;;7.80;;
11346;SDS011;5728;42.722;23.258;2023-06-01T09:37:36;11.02;;;7.25;;
11346;SDS011;5728;42.722;23.258;2023-06-01T09:42:48;10.10;;;7.38;;
11346;SDS011;5728;42.722;23.258;2023-06-01T09:45:16;12.07;;;7.35;;
11346;SDS011;5728;42.722;23.258;2023-06-01T09:47:45;13.00;;;7.13;;
11346;SDS011;5728;42.722;23.258;2023-06-01T09:53:00;12.40;;;6.97;;
11346;SDS011;5728;42.722;23.258;2023-06-01T09:55:29;10.10;;;6.90;;
11346;SDS011;5728;42.722;23.258;2023-06-01T10:00:46;7.88;;;6.10;;
11346;SDS011;5728;42.722;23.258;2023-06-01T10:03:15;12.13;;;6.38;;
11346;SDS011;5728;42.722;23.258;2023-06-01T10:05:44;7.25;;;5.35;;
11346;SDS011;5728;42.722;23.258;2023-06-01T10:08:13;6.97;;;5.53;;
11346;SDS011;5728;42.722;23.258;2023-06-01T10:10:44;6.63;;;5.65;;
11346;SDS011;5728;42.722;23.258;2023-06-01T10:13:12;6.93;;;4.55;;
11346;SDS011;5728;42.722;23.258;2023-06-01T10:15:40;7.20;;;5.47;;
11346;SDS011;5728;42.722;23.258;2023-06-01T10:18:07;8.27;;;5.70;;
11346;SDS011;5728;42.722;23.258;2023-06-01T10:20:35;12.07;;;6.57;;
11346;SDS011;5728;42.722;23.258;2023-06-01T10:23:04;11.82;;;6.05;;
11346;SDS011;5728;42.722;23.258;2023-06-01T10:25:32;8.27;;;6.57;;
11346;SDS011;5728;42.722;23.258;2023-06-01T10:28:06;12.02;;;6.88;;
11346;SDS011;5728;42.722;23.258;2023-06-01T10:30:34;8.90;;;6.75;;
11346;SDS011;5728;42.722;23.258;2023-06-01T10:33:01;6.88;;;5.90;;
11346;SDS011;5728;42.722;23.258;2023-06-01T10:35:51;9.82;;;6.18;;
11346;SDS011;5728;42.722;23.258;2023-06-01T10:38:23;5.47;;;4.53;;
11346;SDS011;5728;42.722;23.258;2023-06-01T10:40:51;5.75;;;3.85;;
11346;SDS011;5728;42.722;23.258;2023-06-01T10:49:03;9.15;;;5.97;;
11346;SDS011;5728;42.722;23.258;2023-06-01T10:51:31;7.90;;;5.05;;
11346;SDS011;5728;42.722;23.258;2023-06-01T11:02:46;8.60;;;5.07;;
11346;SDS011;5728;42.722;23.258;2023-06-01T11:08:04;6.18;;;4.93;;
11346;SDS011;5728;42.722;23.258;2023-06-01T11:13:23;7.03;;;6.05;;
11346;SDS011;5728;42.722;23.258;2023-06-01T11:18:59;10.10;;;5.80;;
11346;SDS011;5728;42.722;23.258;2023-06-01T11:21:29;8.95;;;5.85;;
11346;SDS011;5728;42.722;23.258;2023-06-01T11:23:59;9.07;;;5.65;;
11346;SDS011;5728;42.722;23.258;2023-06-01T11:26:29;13.23;;;6.10;;
11346;SDS011;5728;42.722;23.258;2023-06-01T11:29:06;12.38;;;5.90;;
11346;SDS011;5728;42.722;23.258;2023-06-01T11:31:41;10.68;;;6.63;;
11346;SDS011;5728;42.722;23.258;2023-06-01T11:34:11;8.07;;;5.75;;
11346;SDS011;5728;42.722;23.258;2023-06-01T11:36:40;10.48;;;5.55;;
11346;SDS011;5728;42.722;23.258;2023-06-01T11:39:19;7.70;;;5.80;;
11346;SDS011;5728;42.722;23.258;2023-06-01T11:41:49;10.60;;;6.18;;
11346;SDS011;5728;42.722;23.258;2023-06-01T11:44:16;9.80;;;5.97;;
11346;SDS011;5728;42.722;23.258;2023-06-01T11:46:55;7.18;;;6.00;;
11346;SDS011;5728;42.722;23.258;2023-06-01T11:49:24;7.28;;;5.35;;
11346;SDS011;5728;42.722;23.258;2023-06-01T11:51:51;7.13;;;5.60;;
11346;SDS011;5728;42.722;23.258;2023-06-01T11:54:21;7.38;;;5.20;;
11346;SDS011;5728;42.722;23.258;2023-06-01T11:56:49;8.98;;;3.40;;
11346;SDS011;5728;42.722;23.258;2023-06-01T11:59:17;7.15;;;4.25;;
11346;SDS011;5728;42.722;23.258;2023-06-01T12:01:44;5.88;;;4.22;;
11346;SDS011;5728;42.722;23.258;2023-06-01T12:04:13;6.38;;;3.13;;
11346;SDS011;5728;42.722;23.258;2023-06-01T12:06:40;7.78;;;3.60;;
11346;SDS011;5728;42.722;23.258;2023-06-01T12:09:08;3.70;;;3.20;;
11346;SDS011;5728;42.722;23.258;2023-06-01T12:11:36;7.65;;;3.05;;
11346;SDS011;5728;42.722;23.258;2023-06-01T12:14:04;6.40;;;2.95;;
11346;SDS011;5728;42.722;23.258;2023-06-01T12:19:27;9.25;;;3.17;;
11346;SDS011;5728;42.722;23.258;2023-06-01T12:21:55;6.03;;;3.30;;
11346;SDS011;5728;42.722;23.258;2023-06-01T12:24:27;4.05;;;3.30;;
11346;SDS011;5728;42.722;23.258;2023-06-01T12:26:56;5.63;;;3.22;;
11346;SDS011;5728;42.722;23.258;2023-06-01T12:29:36;3.95;;;3.30;;
11346;SDS011;5728;42.722;23.258;2023-06-01T12:32:05;4.30;;;3.45;;
11346;SDS011;5728;42.722;23.258;2023-06-01T12:34:34;4.53;;;3.42;;
11346;SDS011;5728;42.722;23.258;2023-06-01T12:37:14;5.70;;;3.42;;
11346;SDS011;5728;42.722;23.258;2023-06-01T12:39:42;3.75;;;3.08;;
11346;SDS011;5728;42.722;23.258;2023-06-01T12:42:09;4.78;;;3.20;;
11346;SDS011;5728;42.722;23.258;2023-06-01T12:44:37;6.90;;;3.35;;
11346;SDS011;5728;42.722;23.258;2023-06-01T12:47:06;8.38;;;3.45;;
11346;SDS011;5728;42.722;23.258;2023-06-01T12:49:35;6.22;;;4.10;;
11346;SDS011;5728;42.722;23.258;2023-06-01T12:52:03;10.02;;;3.95;;
11346;SDS011;5728;42.722;23.258;2023-06-01T12:54:31;4.90;;;3.33;;
11346;SDS011;5728;42.722;23.258;2023-06-01T12:56:58;7.15;;;3.90;;
11346;SDS011;5728;42.722;23.258;2023-06-01T12:59:25;4.90;;;3.35;;
11346;SDS011;5728;42.722;23.258;2023-06-01T13:01:52;5.80;;;3.20;;
11346;SDS011;5728;42.722;23.258;2023-06-01T13:04:19;5.30;;;3.60;;
11346;SDS011;5728;42.722;23.258;2023-06-01T13:06:48;4.95;;;3.70;;
11346;SDS011;5728;42.722;23.258;2023-06-01T13:09:16;5.75;;;3.72;;
11346;SDS011;5728;42.722;23.258;2023-06-01T13:11:43;7.35;;;4.53;;
11346;SDS011;5728;42.722;23.258;2023-06-01T13:14:10;6.22;;;4.05;;
11346;SDS011;5728;42.722;23.258;2023-06-01T13:16:37;7.20;;;3.47;;
11346;SDS011;5728;42.722;23.258;2023-06-01T13:19:04;5.18;;;4.15;;
11346;SDS011;5728;42.722;23.258;2023-06-01T13:21:32;5.32;;;4.05;;
11346;SDS011;5728;42.722;23.258;2023-06-01T13:24:00;4.65;;;3.50;;
11346;SDS011;5728;42.722;23.258;2023-06-01T13:26:28;5.88;;;3.97;;
11346;SDS011;5728;42.722;23.258;2023-06-01T13:28:55;5.40;;;4.03;;
11346;SDS011;5728;42.722;23.258;2023-06-01T13:31:22;7.03;;;4.47;;
11346;SDS011;5728;42.722;23.258;2023-06-01T13:33:49;4.65;;;3.70;;
11346;SDS011;5728;42.722;23.258;2023-06-01T13:36:16;6.82;;;4.38;;
11346;SDS011;5728;42.722;23.258;2023-06-01T13:38:43;11.63;;;4.72;;
11346;SDS011;5728;42.722;23.258;2023-06-01T13:41:12;6.90;;;4.25;;
11346;SDS011;5728;42.722;23.258;2023-06-01T13:43:39;9.10;;;4.50;;
11346;SDS011;5728;42.722;23.258;2023-06-01T13:46:19;5.38;;;4.28;;
11346;SDS011;5728;42.722;23.258;2023-06-01T13:48:55;8.57;;;4.53;;
11346;SDS011;5728;42.722;23.258;2023-06-01T13:51:25;9.27;;;4.50;;
11346;SDS011;5728;42.722;23.258;2023-06-01T13:53:56;7.38;;;4.13;;
11346;SDS011;5728;42.722;23.258;2023-06-01T13:56:28;10.25;;;4.10;;
11346;SDS011;5728;42.722;23.258;2023-06-01T13:58:56;6.15;;;3.80;;
11346;SDS011;5728;42.722;23.258;2023-06-01T14:01:28;6.32;;;3.88;;
11346;SDS011;5728;42.722;23.258;2023-06-01T14:04:04;8.98;;;4.13;;
11346;SDS011;5728;42.722;23.258;2023-06-01T14:06:43;6.25;;;3.70;;
11346;SDS011;5728;42.722;23.258;2023-06-01T14:09:13;5.35;;;3.63;;
11346;SDS011;5728;42.722;23.258;2023-06-01T14:12:04;11.48;;;4.35;;
11346;SDS011;5728;42.722;23.258;2023-06-01T14:14:33;6.25;;;3.63;;
11346;SDS011;5728;42.722;23.258;2023-06-01T14:17:04;5.20;;;3.80;;
11346;SDS011;5728;42.722;23.258;2023-06-01T14:19:36;6.60;;;4.38;;
11346;SDS011;5728;42.722;23.258;2023-06-01T14:22:04;4.65;;;3.38;;
11346;SDS011;5728;42.722;23.258;2023-06-01T14:24:34;4.68;;;3.53;;
11346;SDS011;5728;42.722;23.258;2023-06-01T14:27:06;10.52;;;3.60;;
11346;SDS011;5728;42.722;23.258;2023-06-01T14:29:36;4.30;;;3.63;;
11346;SDS011;5728;42.722;23.258;2023-06-01T14:32:03;5.53;;;3.58;;
11346;SDS011;5728;42.722;23.258;2023-06-01T14:34:33;10.57;;;4.18;;
11346;SDS011;5728;42.722;23.258;2023-06-01T14:37:00;5.30;;;4.00;;
11346;SDS011;5728;42.722;23.258;2023-06-01T14:39:31;10.98;;;3.90;;
11346;SDS011;5728;42.722;23.258;2023-06-01T14:41:59;7.90;;;3.80;;
11346;SDS011;5728;42.722;23.258;2023-06-01T14:44:28;6.78;;;4.63;;
11346;SDS011;5728;42.722;23.258;2023-06-01T14:46:57;3.58;;;3.25;;
11346;SDS011;5728;42.722;23.258;2023-06-01T14:49:26;5.22;;;3.75;;
11346;SDS011;5728;42.722;23.258;2023-06-01T14:51:53;8.00;;;3.70;;
11346;SDS011;5728;42.722;23.258;2023-06-01T14:57:14;10.07;;;4.10;;
11346;SDS011;5728;42.722;23.258;2023-06-01T14:59:44;8.65;;;4.47;;
11346;SDS011;5728;42.722;23.258;2023-06-01T15:02:12;10.57;;;4.05;;
11346;SDS011;5728;42.722;23.258;2023-06-01T15:04:41;6.13;;;3.95;;
11346;SDS011;5728;42.722;23.258;2023-06-01T15:07:10;7.85;;;4.78;;
11346;SDS011;5728;42.722;23.258;2023-06-01T15:09:37;5.30;;;4.00;;
11346;SDS011;5728;42.722;23.258;2023-06-01T15:12:06;7.25;;;4.32;;
11346;SDS011;5728;42.722;23.258;2023-06-01T15:14:37;5.57;;;4.07;;
11346;SDS011;5728;42.722;23.258;2023-06-01T15:17:07;5.72;;;3.63;;
11346;SDS011;5728;42.722;23.258;2023-06-01T15:19:34;9.10;;;4.63;;
11346;SDS011;5728;42.722;23.258;2023-06-01T15:22:02;5.85;;;4.40;;
11346;SDS011;5728;42.722;23.258;2023-06-01T15:24:29;6.75;;;4.38;;
11346;SDS011;5728;42.722;23.258;2023-06-01T15:26:57;6.97;;;4.80;;
11346;SDS011;5728;42.722;23.258;2023-06-01T15:29:25;9.25;;;4.35;;
11346;SDS011;5728;42.722;23.258;2023-06-01T15:31:59;9.75;;;4.60;;
11346;SDS011;5728;42.722;23.258;2023-06-01T15:34:36;5.63;;;4.18;;
11346;SDS011;5728;42.722;23.258;2023-06-01T15:37:07;6.55;;;3.88;;
11346;SDS011;5728;42.722;23.258;2023-06-01T15:39:40;5.50;;;4.18;;
11346;SDS011;5728;42.722;23.258;2023-06-01T15:42:09;7.35;;;4.55;;
11346;SDS011;5728;42.722;23.258;2023-06-01T15:44:43;6.78;;;4.20;;
11346;SDS011;5728;42.722;23.258;2023-06-01T15:47:11;5.25;;;3.95;;
11346;SDS011;5728;42.722;23.258;2023-06-01T15:49:40;7.13;;;4.30;;